sensor_id;sensor_type;location;lat;lon;timestamp;pressure;altitude;pressure_sealevel;temperature;humidity
34235;BME280;20500;49.856;20.290;2023-03-14T00:01:16;97558.40;;;8.74;53.87
34235;BME280;20500;49.856;20.290;2023-03-14T00:04:24;97552.71;;;8.72;53.86
34235;BME280;20500;49.856;20.290;2023-03-14T00:07:30;97555.98;;;8.71;53.88
34235;BME280;20500;49.856;20.290;2023-03-14T00:10:38;97546.86;;;8.70;53.81
34235;BME280;20500;49.856;20.290;2023-03-14T00:13:42;97539.06;;;8.69;53.88
34235;BME280;20500;49.856;20.290;2023-03-14T00:16:49;97532.69;;;8.68;53.89
34235;BME280;20500;49.856;20.290;2023-03-14T00:19:53;97526.64;;;8.70;53.94
34235;BME280;20500;49.856;20.290;2023-03-14T00:22:59;97521.13;;;8.70;53.98
34235;BME280;20500;49.856;20.290;2023-03-14T00:26:07;97516.83;;;8.69;54.00
34235;BME280;20500;49.856;20.290;2023-03-14T00:29:14;97513.53;;;8.65;54.11
34235;BME280;20500;49.856;20.290;2023-03-14T00:32:20;97506.39;;;8.60;54.04
34235;BME280;20500;49.856;20.290;2023-03-14T00:35:26;97493.45;;;8.61;54.06
34235;BME280;20500;49.856;20.290;2023-03-14T00:38:33;97486.99;;;8.64;54.14
34235;BME280;20500;49.856;20.290;2023-03-14T00:41:39;97486.70;;;8.60;54.17
34235;BME280;20500;49.856;20.290;2023-03-14T00:44:45;97480.56;;;8.58;54.21
34235;BME280;20500;49.856;20.290;2023-03-14T00:47:50;97473.55;;;8.56;54.25
34235;BME280;20500;49.856;20.290;2023-03-14T00:50:57;97465.95;;;8.50;54.25
34235;BME280;20500;49.856;20.290;2023-03-14T00:54:02;97458.39;;;8.46;54.25
34235;BME280;20500;49.856;20.290;2023-03-14T00:57:08;97459.40;;;8.43;54.39
34235;BME280;20500;49.856;20.290;2023-03-14T01:00:16;97461.17;;;8.38;54.29
34235;BME280;20500;49.856;20.290;2023-03-14T01:03:22;97451.90;;;8.31;54.31
34235;BME280;20500;49.856;20.290;2023-03-14T01:06:29;97446.55;;;8.26;54.35
34235;BME280;20500;49.856;20.290;2023-03-14T01:09:35;97446.55;;;8.24;54.47
34235;BME280;20500;49.856;20.290;2023-03-14T01:12:41;97435.86;;;8.20;54.43
34235;BME280;20500;49.856;20.290;2023-03-14T01:15:47;97420.35;;;8.19;54.46
34235;BME280;20500;49.856;20.290;2023-03-14T01:18:53;97408.55;;;8.19;54.44
34235;BME280;20500;49.856;20.290;2023-03-14T01:21:59;97395.21;;;8.16;54.54
34235;BME280;20500;49.856;20.290;2023-03-14T01:25:07;97388.00;;;8.10;54.77
34235;BME280;20500;49.856;20.290;2023-03-14T01:28:13;97375.81;;;7.99;54.81
34235;BME280;20500;49.856;20.290;2023-03-14T01:31:20;97367.46;;;7.88;54.89
34235;BME280;20500;49.856;20.290;2023-03-14T01:34:25;97357.49;;;7.78;55.00
34235;BME280;20500;49.856;20.290;2023-03-14T01:37:30;97352.85;;;7.71;55.04
34235;BME280;20500;49.856;20.290;2023-03-14T01:40:43;97332.52;;;7.66;55.17
34235;BME280;20500;49.856;20.290;2023-03-14T01:43:49;97319.85;;;7.64;55.40
34235;BME280;20500;49.856;20.290;2023-03-14T01:46:56;97320.85;;;7.68;55.43
34235;BME280;20500;49.856;20.290;2023-03-14T01:50:01;97319.19;;;7.72;55.46
34235;BME280;20500;49.856;20.290;2023-03-14T01:53:07;97322.55;;;7.74;55.50
34235;BME280;20500;49.856;20.290;2023-03-14T01:56:15;97331.82;;;7.72;55.50
34235;BME280;20500;49.856;20.290;2023-03-14T01:59:23;97334.40;;;7.73;55.57
34235;BME280;20500;49.856;20.290;2023-03-14T02:02:30;97330.36;;;7.77;55.53
34235;BME280;20500;49.856;20.290;2023-03-14T02:05:39;97314.23;;;7.80;55.56
34235;BME280;20500;49.856;20.290;2023-03-14T02:08:46;97299.73;;;7.82;55.59
34235;BME280;20500;49.856;20.290;2023-03-14T02:11:53;97293.53;;;7.83;55.76
34235;BME280;20500;49.856;20.290;2023-03-14T02:14:59;97294.14;;;7.78;55.72
34235;BME280;20500;49.856;20.290;2023-03-14T02:18:06;97282.56;;;7.72;55.78
34235;BME280;20500;49.856;20.290;2023-03-14T02:21:18;97270.43;;;7.67;55.88
34235;BME280;20500;49.856;20.290;2023-03-14T02:24:33;97263.15;;;7.63;55.96
34235;BME280;20500;49.856;20.290;2023-03-14T02:27:40;97250.67;;;7.63;56.03
34235;BME280;20500;49.856;20.290;2023-03-14T02:30:45;97247.19;;;7.68;55.87
34235;BME280;20500;49.856;20.290;2023-03-14T02:33:52;97243.34;;;7.67;55.98
34235;BME280;20500;49.856;20.290;2023-03-14T02:36:59;97238.23;;;7.66;56.06
34235;BME280;20500;49.856;20.290;2023-03-14T02:40:08;97230.39;;;7.63;55.98
34235;BME280;20500;49.856;20.290;2023-03-14T02:43:14;97227.48;;;7.61;56.22
34235;BME280;20500;49.856;20.290;2023-03-14T02:46:19;97229.02;;;7.56;56.29
34235;BME280;20500;49.856;20.290;2023-03-14T02:49:28;97222.45;;;7.53;56.39
34235;BME280;20500;49.856;20.290;2023-03-14T02:52:35;97218.06;;;7.53;56.48
34235;BME280;20500;49.856;20.290;2023-03-14T02:55:43;97217.48;;;7.55;56.61
34235;BME280;20500;49.856;20.290;2023-03-14T02:58:49;97217.27;;;7.54;56.78
34235;BME280;20500;49.856;20.290;2023-03-14T03:01:55;97217.31;;;7.56;56.81
34235;BME280;20500;49.856;20.290;2023-03-14T03:05:01;97213.10;;;7.57;56.81
34235;BME280;20500;49.856;20.290;2023-03-14T03:08:07;97209.93;;;7.53;56.76
34235;BME280;20500;49.856;20.290;2023-03-14T03:11:13;97196.02;;;7.50;56.83
34235;BME280;20500;49.856;20.290;2023-03-14T03:14:19;97185.13;;;7.46;56.89
34235;BME280;20500;49.856;20.290;2023-03-14T03:17:25;97184.13;;;7.41;56.87
34235;BME280;20500;49.856;20.290;2023-03-14T03:20:31;97179.83;;;7.31;57.00
34235;BME280;20500;49.856;20.290;2023-03-14T03:23:37;97174.20;;;7.19;57.15
34235;BME280;20500;49.856;20.290;2023-03-14T03:26:43;97168.15;;;7.10;57.15
34235;BME280;20500;49.856;20.290;2023-03-14T03:29:49;97159.91;;;7.03;57.25
34235;BME280;20500;49.856;20.290;2023-03-14T03:32:55;97152.91;;;7.00;57.35
34235;BME280;20500;49.856;20.290;2023-03-14T03:36:00;97150.08;;;7.03;57.26
34235;BME280;20500;49.856;20.290;2023-03-14T03:39:07;97148.38;;;7.06;57.29
34235;BME280;20500;49.856;20.290;2023-03-14T03:42:11;97144.48;;;7.08;57.31
34235;BME280;20500;49.856;20.290;2023-03-14T03:45:17;97139.73;;;7.10;57.42
34235;BME280;20500;49.856;20.290;2023-03-14T03:48:23;97128.73;;;7.14;57.46
34235;BME280;20500;49.856;20.290;2023-03-14T03:51:29;97127.27;;;7.22;57.49
34235;BME280;20500;49.856;20.290;2023-03-14T03:54:35;97127.86;;;7.28;57.39
34235;BME280;20500;49.856;20.290;2023-03-14T03:57:41;97121.61;;;7.34;57.45
34235;BME280;20500;49.856;20.290;2023-03-14T04:00:47;97117.70;;;7.38;57.32
34235;BME280;20500;49.856;20.290;2023-03-14T04:03:53;97118.03;;;7.41;57.43
34235;BME280;20500;49.856;20.290;2023-03-14T04:06:58;97117.75;;;7.44;57.36
34235;BME280;20500;49.856;20.290;2023-03-14T04:10:04;97118.11;;;7.43;57.53
34235;BME280;20500;49.856;20.290;2023-03-14T04:13:10;97117.33;;;7.38;57.39
34235;BME280;20500;49.856;20.290;2023-03-14T04:16:18;97119.45;;;7.33;57.55
34235;BME280;20500;49.856;20.290;2023-03-14T04:19:24;97128.73;;;7.25;57.63
34235;BME280;20500;49.856;20.290;2023-03-14T04:22:30;97133.65;;;7.17;57.68
34235;BME280;20500;49.856;20.290;2023-03-14T04:25:36;97137.48;;;7.09;57.62
34235;BME280;20500;49.856;20.290;2023-03-14T04:28:43;97140.06;;;7.03;57.76
34235;BME280;20500;49.856;20.290;2023-03-14T04:31:47;97141.77;;;7.00;57.84
34235;BME280;20500;49.856;20.290;2023-03-14T04:34:53;97141.97;;;6.93;57.92
34235;BME280;20500;49.856;20.290;2023-03-14T04:37:59;97144.20;;;6.86;57.94
34235;BME280;20500;49.856;20.290;2023-03-14T04:41:06;97152.05;;;6.85;58.05
34235;BME280;20500;49.856;20.290;2023-03-14T04:44:12;97165.81;;;6.80;58.03
34235;BME280;20500;49.856;20.290;2023-03-14T04:47:17;97171.89;;;6.64;58.14
34235;BME280;20500;49.856;20.290;2023-03-14T04:50:23;97177.40;;;6.55;58.23
34235;BME280;20500;49.856;20.290;2023-03-14T04:53:29;97174.27;;;6.62;58.21
34235;BME280;20500;49.856;20.290;2023-03-14T04:56:36;97175.61;;;6.67;58.19
34235;BME280;20500;49.856;20.290;2023-03-14T04:59:42;97174.27;;;6.65;58.39
34235;BME280;20500;49.856;20.290;2023-03-14T05:02:48;97186.16;;;6.63;58.44
34235;BME280;20500;49.856;20.290;2023-03-14T05:05:54;97197.20;;;6.55;58.28
34235;BME280;20500;49.856;20.290;2023-03-14T05:09:02;97200.60;;;6.41;58.51
34235;BME280;20500;49.856;20.290;2023-03-14T05:12:09;97201.63;;;6.32;58.76
34235;BME280;20500;49.856;20.290;2023-03-14T05:15:15;97201.64;;;6.36;58.81
34235;BME280;20500;49.856;20.290;2023-03-14T05:18:21;97197.69;;;6.42;58.78
34235;BME280;20500;49.856;20.290;2023-03-14T05:21:27;97188.48;;;6.36;58.75
34235;BME280;20500;49.856;20.290;2023-03-14T05:24:33;97182.86;;;6.38;58.99
34235;BME280;20500;49.856;20.290;2023-03-14T05:27:38;97193.67;;;6.35;58.97
34235;BME280;20500;49.856;20.290;2023-03-14T05:30:44;97202.29;;;6.28;59.10
34235;BME280;20500;49.856;20.290;2023-03-14T05:33:50;97194.61;;;6.14;59.17
34235;BME280;20500;49.856;20.290;2023-03-14T05:36:56;97191.79;;;6.08;59.31
34235;BME280;20500;49.856;20.290;2023-03-14T05:40:02;97202.98;;;6.11;59.29
34235;BME280;20500;49.856;20.290;2023-03-14T05:43:09;97199.52;;;6.14;59.35
34235;BME280;20500;49.856;20.290;2023-03-14T05:46:14;97196.62;;;6.17;59.48
34235;BME280;20500;49.856;20.290;2023-03-14T05:49:20;97195.76;;;6.21;59.55
34235;BME280;20500;49.856;20.290;2023-03-14T05:52:26;97190.50;;;6.24;59.74
34235;BME280;20500;49.856;20.290;2023-03-14T05:55:32;97175.20;;;6.31;59.80
34235;BME280;20500;49.856;20.290;2023-03-14T05:58:38;97177.08;;;6.42;59.74
34235;BME280;20500;49.856;20.290;2023-03-14T06:01:44;97180.09;;;6.52;59.82
34235;BME280;20500;49.856;20.290;2023-03-14T06:04:50;97171.71;;;6.61;60.00
34235;BME280;20500;49.856;20.290;2023-03-14T06:07:56;97163.21;;;6.69;60.09
34235;BME280;20500;49.856;20.290;2023-03-14T06:11:04;97165.80;;;6.74;60.25
34235;BME280;20500;49.856;20.290;2023-03-14T06:14:09;97164.45;;;6.76;60.35
34235;BME280;20500;49.856;20.290;2023-03-14T06:17:15;97164.70;;;6.79;60.43
34235;BME280;20500;49.856;20.290;2023-03-14T06:20:21;97162.92;;;6.83;60.42
34235;BME280;20500;49.856;20.290;2023-03-14T06:23:27;97161.39;;;6.93;60.39
34235;BME280;20500;49.856;20.290;2023-03-14T06:26:35;97153.88;;;7.07;60.44
34235;BME280;20500;49.856;20.290;2023-03-14T06:29:41;97156.51;;;7.20;60.45
34235;BME280;20500;49.856;20.290;2023-03-14T06:32:46;97158.96;;;7.33;60.60
34235;BME280;20500;49.856;20.290;2023-03-14T06:35:52;97157.92;;;7.43;60.54
34235;BME280;20500;49.856;20.290;2023-03-14T06:38:58;97146.41;;;7.53;60.69
34235;BME280;20500;49.856;20.290;2023-03-14T06:42:05;97140.73;;;7.67;60.65
34235;BME280;20500;49.856;20.290;2023-03-14T06:45:12;97134.25;;;7.79;60.75
34235;BME280;20500;49.856;20.290;2023-03-14T06:48:18;97132.67;;;7.92;60.86
34235;BME280;20500;49.856;20.290;2023-03-14T06:51:24;97127.14;;;8.03;60.88
34235;BME280;20500;49.856;20.290;2023-03-14T06:54:30;97124.23;;;8.15;61.05
34235;BME280;20500;49.856;20.290;2023-03-14T06:57:34;97117.09;;;8.25;61.12
34235;BME280;20500;49.856;20.290;2023-03-14T07:00:40;97114.67;;;8.38;61.16
34235;BME280;20500;49.856;20.290;2023-03-14T07:03:46;97118.69;;;8.50;61.28
34235;BME280;20500;49.856;20.290;2023-03-14T07:06:52;97124.31;;;8.63;61.41
34235;BME280;20500;49.856;20.290;2023-03-14T07:09:58;97126.34;;;8.75;61.39
34235;BME280;20500;49.856;20.290;2023-03-14T07:13:04;97122.05;;;8.91;61.41
34235;BME280;20500;49.856;20.290;2023-03-14T07:16:09;97113.40;;;9.10;61.44
34235;BME280;20500;49.856;20.290;2023-03-14T07:19:15;97108.44;;;9.31;61.68
34235;BME280;20500;49.856;20.290;2023-03-14T07:22:21;97113.31;;;9.49;61.54
34235;BME280;20500;49.856;20.290;2023-03-14T07:25:27;97117.02;;;9.67;61.45
34235;BME280;20500;49.856;20.290;2023-03-14T07:28:31;97116.36;;;9.84;61.33
34235;BME280;20500;49.856;20.290;2023-03-14T07:31:37;97109.77;;;10.02;61.25
34235;BME280;20500;49.856;20.290;2023-03-14T07:34:43;97105.34;;;10.20;60.98
34235;BME280;20500;49.856;20.290;2023-03-14T07:37:48;97104.93;;;10.35;60.99
34235;BME280;20500;49.856;20.290;2023-03-14T07:40:59;97105.94;;;10.54;61.05
34235;BME280;20500;49.856;20.290;2023-03-14T07:44:05;97098.73;;;10.72;61.00
34235;BME280;20500;49.856;20.290;2023-03-14T07:47:11;97098.73;;;10.89;60.75
34235;BME280;20500;49.856;20.290;2023-03-14T07:50:18;97102.80;;;11.08;60.42
34235;BME280;20500;49.856;20.290;2023-03-14T07:53:24;97106.23;;;11.29;60.31
34235;BME280;20500;49.856;20.290;2023-03-14T07:56:30;97102.70;;;11.48;60.18
34235;BME280;20500;49.856;20.290;2023-03-14T07:59:36;97103.42;;;11.66;59.94
34235;BME280;20500;49.856;20.290;2023-03-14T08:02:42;97103.38;;;11.83;59.73
34235;BME280;20500;49.856;20.290;2023-03-14T08:05:50;97098.52;;;12.02;59.51
34235;BME280;20500;49.856;20.290;2023-03-14T08:08:56;97096.44;;;12.20;59.34
34235;BME280;20500;49.856;20.290;2023-03-14T08:12:02;97105.14;;;12.34;59.26
34235;BME280;20500;49.856;20.290;2023-03-14T08:15:10;97105.54;;;12.48;59.07
34235;BME280;20500;49.856;20.290;2023-03-14T08:18:15;97109.75;;;12.60;58.88
34235;BME280;20500;49.856;20.290;2023-03-14T08:21:21;97096.52;;;12.70;58.67
34235;BME280;20500;49.856;20.290;2023-03-14T08:24:27;97098.94;;;12.80;58.43
34235;BME280;20500;49.856;20.290;2023-03-14T08:27:32;97099.41;;;12.90;58.38
34235;BME280;20500;49.856;20.290;2023-03-14T08:30:37;97103.35;;;13.00;58.31
34235;BME280;20500;49.856;20.290;2023-03-14T08:33:44;97102.09;;;13.09;58.24
34235;BME280;20500;49.856;20.290;2023-03-14T08:36:48;97103.77;;;13.20;57.99
34235;BME280;20500;49.856;20.290;2023-03-14T08:39:54;97099.73;;;13.32;57.85
34235;BME280;20500;49.856;20.290;2023-03-14T08:43:00;97099.27;;;13.47;57.76
34235;BME280;20500;49.856;20.290;2023-03-14T08:46:07;97094.33;;;13.63;57.65
34235;BME280;20500;49.856;20.290;2023-03-14T08:49:13;97094.33;;;13.86;57.54
34235;BME280;20500;49.856;20.290;2023-03-14T08:52:19;97082.21;;;14.07;57.25
34235;BME280;20500;49.856;20.290;2023-03-14T08:55:25;97068.60;;;14.26;56.99
34235;BME280;20500;49.856;20.290;2023-03-14T08:58:32;97067.16;;;14.41;56.77
34235;BME280;20500;49.856;20.290;2023-03-14T09:01:38;97066.55;;;14.51;56.37
34235;BME280;20500;49.856;20.290;2023-03-14T09:04:44;97076.88;;;14.64;56.40
34235;BME280;20500;49.856;20.290;2023-03-14T09:07:50;97081.39;;;14.77;56.10
34235;BME280;20500;49.856;20.290;2023-03-14T09:10:56;97084.35;;;14.82;55.75
34235;BME280;20500;49.856;20.290;2023-03-14T09:14:02;97089.77;;;14.81;55.57
34235;BME280;20500;49.856;20.290;2023-03-14T09:17:08;97095.36;;;14.86;55.46
34235;BME280;20500;49.856;20.290;2023-03-14T09:20:14;97102.76;;;14.98;54.95
34235;BME280;20500;49.856;20.290;2023-03-14T09:23:20;97094.23;;;14.99;54.65
34235;BME280;20500;49.856;20.290;2023-03-14T09:26:26;97091.52;;;14.98;54.69
34235;BME280;20500;49.856;20.290;2023-03-14T09:29:32;97094.86;;;14.91;54.39
34235;BME280;20500;49.856;20.290;2023-03-14T09:32:38;97093.27;;;14.81;54.21
34235;BME280;20500;49.856;20.290;2023-03-14T09:35:44;97092.71;;;14.70;53.95
34235;BME280;20500;49.856;20.290;2023-03-14T09:38:50;97100.62;;;14.57;53.28
34235;BME280;20500;49.856;20.290;2023-03-14T09:41:56;97104.17;;;14.49;53.33
34235;BME280;20500;49.856;20.290;2023-03-14T09:45:07;97102.23;;;14.43;53.31
34235;BME280;20500;49.856;20.290;2023-03-14T09:48:19;97107.59;;;14.39;53.20
34235;BME280;20500;49.856;20.290;2023-03-14T09:51:25;97110.06;;;14.35;53.19
34235;BME280;20500;49.856;20.290;2023-03-14T09:54:37;97117.91;;;14.33;52.88
34235;BME280;20500;49.856;20.290;2023-03-14T09:57:45;97132.52;;;14.36;52.76
34235;BME280;20500;49.856;20.290;2023-03-14T10:00:55;97138.02;;;14.42;52.62
34235;BME280;20500;49.856;20.290;2023-03-14T10:04:04;97131.75;;;14.48;52.47
34235;BME280;20500;49.856;20.290;2023-03-14T10:07:15;97131.66;;;14.53;52.40
34235;BME280;20500;49.856;20.290;2023-03-14T10:10:25;97134.53;;;14.58;52.40
34235;BME280;20500;49.856;20.290;2023-03-14T10:13:31;97144.20;;;14.71;52.34
34235;BME280;20500;49.856;20.290;2023-03-14T10:16:40;97155.81;;;14.88;52.37
34235;BME280;20500;49.856;20.290;2023-03-14T10:19:58;97158.42;;;15.01;52.11
34235;BME280;20500;49.856;20.290;2023-03-14T10:23:07;97164.59;;;15.10;51.97
34235;BME280;20500;49.856;20.290;2023-03-14T10:26:28;97169.84;;;15.18;51.78
34235;BME280;20500;49.856;20.290;2023-03-14T10:29:54;97168.84;;;15.29;51.96
34235;BME280;20500;49.856;20.290;2023-03-14T10:33:11;97176.98;;;15.42;51.83
34235;BME280;20500;49.856;20.290;2023-03-14T10:36:20;97172.74;;;15.58;51.72
34235;BME280;20500;49.856;20.290;2023-03-14T10:39:32;97166.17;;;15.68;51.48
34235;BME280;20500;49.856;20.290;2023-03-14T10:42:44;97169.16;;;15.73;51.29
34235;BME280;20500;49.856;20.290;2023-03-14T10:45:56;97163.98;;;15.68;51.19
34235;BME280;20500;49.856;20.290;2023-03-14T10:49:05;97155.84;;;15.63;51.24
34235;BME280;20500;49.856;20.290;2023-03-14T10:52:21;97157.46;;;15.55;51.12
34235;BME280;20500;49.856;20.290;2023-03-14T10:55:47;97164.98;;;15.44;50.75
34235;BME280;20500;49.856;20.290;2023-03-14T10:58:55;97170.33;;;15.34;50.63
34235;BME280;20500;49.856;20.290;2023-03-14T11:02:07;97164.20;;;15.24;50.75
34235;BME280;20500;49.856;20.290;2023-03-14T11:05:25;97154.71;;;15.14;50.69
34235;BME280;20500;49.856;20.290;2023-03-14T11:08:40;97152.64;;;15.04;50.59
34235;BME280;20500;49.856;20.290;2023-03-14T11:11:49;97156.84;;;14.97;50.45
34235;BME280;20500;49.856;20.290;2023-03-14T11:14:54;97158.35;;;14.95;50.50
34235;BME280;20500;49.856;20.290;2023-03-14T11:18:30;97153.90;;;14.99;50.58
34235;BME280;20500;49.856;20.290;2023-03-14T11:21:49;97153.42;;;15.06;50.60
34235;BME280;20500;49.856;20.290;2023-03-14T11:25:10;97154.54;;;15.13;50.53
34235;BME280;20500;49.856;20.290;2023-03-14T11:28:26;97151.27;;;15.15;50.46
34235;BME280;20500;49.856;20.290;2023-03-14T11:31:37;97145.02;;;15.19;50.42
34235;BME280;20500;49.856;20.290;2023-03-14T11:34:50;97141.33;;;15.25;50.51
34235;BME280;20500;49.856;20.290;2023-03-14T11:38:05;97134.67;;;15.27;50.38
34235;BME280;20500;49.856;20.290;2023-03-14T11:41:17;97127.77;;;15.27;50.21
34235;BME280;20500;49.856;20.290;2023-03-14T11:44:27;97121.41;;;15.28;50.25
34235;BME280;20500;49.856;20.290;2023-03-14T11:47:39;97116.52;;;15.33;50.30
34235;BME280;20500;49.856;20.290;2023-03-14T11:50:49;97112.00;;;15.37;50.20
34235;BME280;20500;49.856;20.290;2023-03-14T11:54:00;97110.33;;;15.39;50.18
34235;BME280;20500;49.856;20.290;2023-03-14T11:57:11;97104.39;;;15.37;50.21
34235;BME280;20500;49.856;20.290;2023-03-14T12:00:22;97106.46;;;15.35;50.03
34235;BME280;20500;49.856;20.290;2023-03-14T12:03:34;97113.76;;;15.35;50.07
34235;BME280;20500;49.856;20.290;2023-03-14T12:06:48;97112.52;;;15.38;50.23
34235;BME280;20500;49.856;20.290;2023-03-14T12:09:54;97108.88;;;15.42;50.22
34235;BME280;20500;49.856;20.290;2023-03-14T12:13:01;97109.05;;;15.43;50.12
34235;BME280;20500;49.856;20.290;2023-03-14T12:16:10;97113.60;;;15.44;50.10
34235;BME280;20500;49.856;20.290;2023-03-14T12:19:31;97113.85;;;15.46;50.06
34235;BME280;20500;49.856;20.290;2023-03-14T12:22:43;97112.34;;;15.45;50.04
34235;BME280;20500;49.856;20.290;2023-03-14T12:26:08;97111.61;;;15.48;50.08
34235;BME280;20500;49.856;20.290;2023-03-14T12:29:18;97113.58;;;15.54;49.87
34235;BME280;20500;49.856;20.290;2023-03-14T12:32:26;97109.84;;;15.60;50.07
34235;BME280;20500;49.856;20.290;2023-03-14T12:35:37;97108.02;;;15.67;49.95
34235;BME280;20500;49.856;20.290;2023-03-14T12:38:55;97103.77;;;15.73;50.09
34235;BME280;20500;49.856;20.290;2023-03-14T12:42:07;97089.66;;;15.79;50.12
34235;BME280;20500;49.856;20.290;2023-03-14T12:45:27;97079.98;;;15.83;49.98
34235;BME280;20500;49.856;20.290;2023-03-14T12:48:33;97077.63;;;15.85;49.75
34235;BME280;20500;49.856;20.290;2023-03-14T12:51:38;97083.34;;;15.86;49.69
34235;BME280;20500;49.856;20.290;2023-03-14T12:54:49;97083.72;;;15.86;49.63
34235;BME280;20500;49.856;20.290;2023-03-14T12:58:05;97087.20;;;15.80;49.62
34235;BME280;20500;49.856;20.290;2023-03-14T13:01:18;97087.05;;;15.68;49.53
34235;BME280;20500;49.856;20.290;2023-03-14T13:04:31;97091.77;;;15.56;49.51
34235;BME280;20500;49.856;20.290;2023-03-14T13:08:04;97093.14;;;15.43;49.42
34235;BME280;20500;49.856;20.290;2023-03-14T13:11:15;97099.71;;;15.29;49.35
34235;BME280;20500;49.856;20.290;2023-03-14T13:14:22;97106.94;;;15.16;49.23
34235;BME280;20500;49.856;20.290;2023-03-14T13:17:32;97105.46;;;15.05;49.30
34235;BME280;20500;49.856;20.290;2023-03-14T13:20:44;97108.65;;;14.94;49.32
34235;BME280;20500;49.856;20.290;2023-03-14T13:23:59;97109.11;;;14.82;49.31
34235;BME280;20500;49.856;20.290;2023-03-14T13:27:08;97111.23;;;14.70;49.34
34235;BME280;20500;49.856;20.290;2023-03-14T13:30:24;97110.86;;;14.62;49.33
34235;BME280;20500;49.856;20.290;2023-03-14T13:33:31;97113.67;;;14.54;49.31
34235;BME280;20500;49.856;20.290;2023-03-14T13:36:39;97113.34;;;14.48;49.36
34235;BME280;20500;49.856;20.290;2023-03-14T13:39:50;97118.09;;;14.39;49.41
34235;BME280;20500;49.856;20.290;2023-03-14T13:43:10;97130.29;;;14.30;49.49
34235;BME280;20500;49.856;20.290;2023-03-14T13:46:22;97133.66;;;14.21;49.40
34235;BME280;20500;49.856;20.290;2023-03-14T13:49:31;97135.73;;;14.11;49.50
34235;BME280;20500;49.856;20.290;2023-03-14T13:52:40;97137.52;;;14.03;49.50
34235;BME280;20500;49.856;20.290;2023-03-14T13:55:45;97142.14;;;13.97;49.49
34235;BME280;20500;49.856;20.290;2023-03-14T13:58:52;97147.32;;;13.91;49.63
34235;BME280;20500;49.856;20.290;2023-03-14T14:01:56;97151.47;;;13.87;49.70
34235;BME280;20500;49.856;20.290;2023-03-14T14:05:03;97148.48;;;13.82;49.81
34235;BME280;20500;49.856;20.290;2023-03-14T14:08:13;97146.58;;;13.79;49.77
34235;BME280;20500;49.856;20.290;2023-03-14T14:11:27;97151.55;;;13.73;49.80
34235;BME280;20500;49.856;20.290;2023-03-14T14:14:53;97145.73;;;13.67;50.05
34235;BME280;20500;49.856;20.290;2023-03-14T14:18:03;97149.90;;;13.65;50.06
34235;BME280;20500;49.856;20.290;2023-03-14T14:21:10;97149.63;;;13.64;50.16
34235;BME280;20500;49.856;20.290;2023-03-14T14:24:17;97146.73;;;13.61;50.12
34235;BME280;20500;49.856;20.290;2023-03-14T14:27:32;97144.16;;;13.57;50.28
34235;BME280;20500;49.856;20.290;2023-03-14T14:30:40;97144.11;;;13.55;50.34
34235;BME280;20500;49.856;20.290;2023-03-14T14:33:53;97142.78;;;13.50;50.48
34235;BME280;20500;49.856;20.290;2023-03-14T14:36:59;97138.02;;;13.46;50.62
34235;BME280;20500;49.856;20.290;2023-03-14T14:40:16;97141.04;;;13.44;50.64
34235;BME280;20500;49.856;20.290;2023-03-14T14:43:24;97141.80;;;13.41;50.77
34235;BME280;20500;49.856;20.290;2023-03-14T14:46:34;97141.64;;;13.38;50.87
34235;BME280;20500;49.856;20.290;2023-03-14T14:49:41;97138.30;;;13.37;51.14
34235;BME280;20500;49.856;20.290;2023-03-14T14:52:47;97134.36;;;13.34;51.29
34235;BME280;20500;49.856;20.290;2023-03-14T14:55:55;97135.30;;;13.31;51.48
34235;BME280;20500;49.856;20.290;2023-03-14T14:59:02;97144.00;;;13.29;51.67
34235;BME280;20500;49.856;20.290;2023-03-14T15:02:31;97140.08;;;13.27;51.73
34235;BME280;20500;49.856;20.290;2023-03-14T15:05:42;97145.96;;;13.25;51.93
34235;BME280;20500;49.856;20.290;2023-03-14T15:08:48;97146.27;;;13.25;52.00
34235;BME280;20500;49.856;20.290;2023-03-14T15:11:54;97141.15;;;13.23;52.16
34235;BME280;20500;49.856;20.290;2023-03-14T15:15:00;97141.48;;;13.21;52.23
34235;BME280;20500;49.856;20.290;2023-03-14T15:18:14;97143.02;;;13.18;52.45
34235;BME280;20500;49.856;20.290;2023-03-14T15:21:20;97147.06;;;13.16;52.65
34235;BME280;20500;49.856;20.290;2023-03-14T15:24:26;97147.63;;;13.13;52.70
34235;BME280;20500;49.856;20.290;2023-03-14T15:27:33;97152.05;;;13.10;52.94
34235;BME280;20500;49.856;20.290;2023-03-14T15:30:39;97155.81;;;13.06;52.98
34235;BME280;20500;49.856;20.290;2023-03-14T15:33:46;97160.24;;;13.04;53.04
34235;BME280;20500;49.856;20.290;2023-03-14T15:36:52;97161.67;;;13.02;53.11
34235;BME280;20500;49.856;20.290;2023-03-14T15:39:58;97171.35;;;12.99;53.39
34235;BME280;20500;49.856;20.290;2023-03-14T15:43:03;97182.03;;;12.95;53.48
34235;BME280;20500;49.856;20.290;2023-03-14T15:46:11;97183.79;;;12.90;53.77
34235;BME280;20500;49.856;20.290;2023-03-14T15:49:18;97189.55;;;12.78;54.12
34235;BME280;20500;49.856;20.290;2023-03-14T15:52:25;97200.77;;;12.56;54.56
34235;BME280;20500;49.856;20.290;2023-03-14T15:55:31;97202.41;;;12.35;54.73
34235;BME280;20500;49.856;20.290;2023-03-14T15:58:35;97205.57;;;12.18;55.21
34235;BME280;20500;49.856;20.290;2023-03-14T16:01:44;97209.14;;;12.07;55.78
34235;BME280;20500;49.856;20.290;2023-03-14T16:04:52;97215.81;;;12.01;56.07
34235;BME280;20500;49.856;20.290;2023-03-14T16:07:58;97218.39;;;11.99;56.49
34235;BME280;20500;49.856;20.290;2023-03-14T16:11:06;97220.10;;;11.93;56.75
34235;BME280;20500;49.856;20.290;2023-03-14T16:14:12;97219.40;;;11.89;57.04
34235;BME280;20500;49.856;20.290;2023-03-14T16:17:17;97213.63;;;11.85;57.28
34235;BME280;20500;49.856;20.290;2023-03-14T16:20:24;97217.82;;;11.81;57.54
34235;BME280;20500;49.856;20.290;2023-03-14T16:23:35;97219.45;;;11.77;57.91
34235;BME280;20500;49.856;20.290;2023-03-14T16:26:41;97221.50;;;11.71;58.29
34235;BME280;20500;49.856;20.290;2023-03-14T16:29:48;97219.90;;;11.66;58.46